sensor_id;sensor_type;location;lat;lon;timestamp;pressure;altitude;pressure_sealevel;temperature;humidity
64668;BME280;51077;42.716;23.344;2022-10-12T00:00:00;95958.72;;;16.89;63.68
64668;BME280;51077;42.716;23.344;2022-10-12T00:02:26;95963.22;;;16.92;63.52
64668;BME280;51077;42.716;23.344;2022-10-12T00:04:51;95965.03;;;16.89;63.68
64668;BME280;51077;42.716;23.344;2022-10-12T00:07:16;95963.53;;;16.88;63.52
64668;BME280;51077;42.716;23.344;2022-10-12T00:09:42;95960.97;;;16.90;63.33
64668;BME280;51077;42.716;23.344;2022-10-12T00:12:07;95954.16;;;16.91;63.57
64668;BME280;51077;42.716;23.344;2022-10-12T00:14:36;95959.28;;;16.87;63.29
64668;BME280;51077;42.716;23.344;2022-10-12T00:17:02;95955.00;;;16.86;63.60
64668;BME280;51077;42.716;23.344;2022-10-12T00:19:27;95956.81;;;16.83;63.57
64668;BME280;51077;42.716;23.344;2022-10-12T00:21:53;95952.56;;;16.82;63.75
64668;BME280;51077;42.716;23.344;2022-10-12T00:24:18;95957.56;;;16.84;63.45
64668;BME280;51077;42.716;23.344;2022-10-12T00:26:44;95952.38;;;16.80;63.50
64668;BME280;51077;42.716;23.344;2022-10-12T00:29:09;95953.13;;;16.81;63.74
64668;BME280;51077;42.716;23.344;2022-10-12T00:31:34;95953.84;;;16.81;63.57
64668;BME280;51077;42.716;23.344;2022-10-12T00:34:02;95944.06;;;16.80;63.88
64668;BME280;51077;42.716;23.344;2022-10-12T00:36:31;95956.81;;;16.83;63.44
64668;BME280;51077;42.716;23.344;2022-10-12T00:38:58;95951.50;;;16.86;63.51
64668;BME280;51077;42.716;23.344;2022-10-12T00:41:30;95952.66;;;16.90;63.08
64668;BME280;51077;42.716;23.344;2022-10-12T00:43:56;95951.56;;;16.93;63.46
64668;BME280;51077;42.716;23.344;2022-10-12T00:46:29;95955.31;;;16.96;63.28
64668;BME280;51077;42.716;23.344;2022-10-12T00:49:15;95955.84;;;16.94;63.05
64668;BME280;51077;42.716;23.344;2022-10-12T00:51:43;95955.31;;;16.96;63.07
64668;BME280;51077;42.716;23.344;2022-10-12T00:54:14;95954.97;;;16.99;62.92
64668;BME280;51077;42.716;23.344;2022-10-12T00:56:43;95953.69;;;17.00;62.83
64668;BME280;51077;42.716;23.344;2022-10-12T00:59:12;95946.97;;;16.96;62.98
64668;BME280;51077;42.716;23.344;2022-10-12T01:01:39;95948.06;;;16.93;63.02
64668;BME280;51077;42.716;23.344;2022-10-12T01:04:05;95946.38;;;16.90;63.17
64668;BME280;51077;42.716;23.344;2022-10-12T01:06:32;95941.34;;;16.88;63.32
64668;BME280;51077;42.716;23.344;2022-10-12T01:08:58;95955.22;;;16.88;63.45
64668;BME280;51077;42.716;23.344;2022-10-12T01:11:24;95949.88;;;16.90;63.41
64668;BME280;51077;42.716;23.344;2022-10-12T01:13:49;95944.84;;;16.89;63.33
64668;BME280;51077;42.716;23.344;2022-10-12T01:16:28;95948.59;;;16.91;63.49
64668;BME280;51077;42.716;23.344;2022-10-12T01:21:30;95953.94;;;16.89;63.59
64668;BME280;51077;42.716;23.344;2022-10-12T01:33:08;95949.78;;;16.82;63.49
64668;BME280;51077;42.716;23.344;2022-10-12T01:41:32;95951.59;;;16.80;63.55
64668;BME280;51077;42.716;23.344;2022-10-12T01:44:00;95951.09;;;16.81;63.64
64668;BME280;51077;42.716;23.344;2022-10-12T01:48:53;95948.72;;;16.86;63.60
64668;BME280;51077;42.716;23.344;2022-10-12T01:54:20;95948.94;;;16.88;63.35
64668;BME280;51077;42.716;23.344;2022-10-12T01:57:22;95953.84;;;16.81;63.28
64668;BME280;51077;42.716;23.344;2022-10-12T02:07:38;95950.34;;;16.81;63.59
64668;BME280;51077;42.716;23.344;2022-10-12T02:10:10;95957.69;;;16.78;63.41
64668;BME280;51077;42.716;23.344;2022-10-12T02:12:38;95957.28;;;16.74;63.56
64668;BME280;51077;42.716;23.344;2022-10-12T02:15:06;95962.81;;;16.74;63.38
64668;BME280;51077;42.716;23.344;2022-10-12T02:17:33;95971.13;;;16.74;63.54
64668;BME280;51077;42.716;23.344;2022-10-12T02:20:00;95965.59;;;16.74;63.51
64668;BME280;51077;42.716;23.344;2022-10-12T02:22:33;95968.91;;;16.73;63.68
64668;BME280;51077;42.716;23.344;2022-10-12T02:25:03;95971.88;;;16.75;63.67
64668;BME280;51077;42.716;23.344;2022-10-12T02:27:31;95980.19;;;16.75;63.57
64668;BME280;51077;42.716;23.344;2022-10-12T02:29:58;95977.41;;;16.75;63.87
64668;BME280;51077;42.716;23.344;2022-10-12T02:35:01;95983.72;;;16.75;63.72
64668;BME280;51077;42.716;23.344;2022-10-12T02:40:18;95975.38;;;16.75;63.29
64668;BME280;51077;42.716;23.344;2022-10-12T02:42:50;95976.13;;;16.76;63.54
64668;BME280;51077;42.716;23.344;2022-10-12T02:45:18;95971.88;;;16.75;63.41
64668;BME280;51077;42.716;23.344;2022-10-12T02:47:46;95966.44;;;16.69;63.67
64668;BME280;51077;42.716;23.344;2022-10-12T02:50:14;95963.66;;;16.69;63.61
64668;BME280;51077;42.716;23.344;2022-10-12T02:52:42;95972.16;;;16.71;63.71
64668;BME280;51077;42.716;23.344;2022-10-12T02:55:07;95973.25;;;16.68;63.86
64668;BME280;51077;42.716;23.344;2022-10-12T02:57:33;95972.09;;;16.64;63.92
64668;BME280;51077;42.716;23.344;2022-10-12T02:59:58;95969.31;;;16.64;63.82
64668;BME280;51077;42.716;23.344;2022-10-12T03:02:24;95979.31;;;16.67;63.76
64668;BME280;51077;42.716;23.344;2022-10-12T03:04:49;95973.78;;;16.67;63.77
64668;BME280;51077;42.716;23.344;2022-10-12T03:07:14;95971.44;;;16.71;63.62
64668;BME280;51077;42.716;23.344;2022-10-12T03:09:40;95968.97;;;16.67;63.71
64668;BME280;51077;42.716;23.344;2022-10-12T03:12:05;95967.41;;;16.72;63.59
64668;BME280;51077;42.716;23.344;2022-10-12T03:14:31;95966.63;;;16.71;63.61
64668;BME280;51077;42.716;23.344;2022-10-12T03:16:58;95959.09;;;16.72;63.60
64668;BME280;51077;42.716;23.344;2022-10-12T03:19:23;95966.13;;;16.73;63.51
64668;BME280;51077;42.716;23.344;2022-10-12T03:21:48;95960.34;;;16.71;63.51
64668;BME280;51077;42.716;23.344;2022-10-12T03:24:14;95964.41;;;16.70;63.88
64668;BME280;51077;42.716;23.344;2022-10-12T03:26:39;95962.16;;;16.68;63.98
64668;BME280;51077;42.716;23.344;2022-10-12T03:29:05;95962.63;;;16.72;64.41
64668;BME280;51077;42.716;23.344;2022-10-12T03:31:30;95967.28;;;16.77;64.36
64668;BME280;51077;42.716;23.344;2022-10-12T03:33:56;95969.31;;;16.77;64.10
64668;BME280;51077;42.716;23.344;2022-10-12T03:36:21;95968.47;;;16.69;64.02
64668;BME280;51077;42.716;23.344;2022-10-12T03:38:47;95974.88;;;16.64;64.18
64668;BME280;51077;42.716;23.344;2022-10-12T03:41:12;95974.03;;;16.55;64.20
64668;BME280;51077;42.716;23.344;2022-10-12T03:43:37;95966.16;;;16.46;64.43
64668;BME280;51077;42.716;23.344;2022-10-12T03:46:03;95974.78;;;16.43;64.71
64668;BME280;51077;42.716;23.344;2022-10-12T03:48:28;95977.66;;;16.37;64.57
64668;BME280;51077;42.716;23.344;2022-10-12T03:50:54;95968.19;;;16.32;64.68
64668;BME280;51077;42.716;23.344;2022-10-12T03:53:20;95964.44;;;16.30;64.72
64668;BME280;51077;42.716;23.344;2022-10-12T03:55:45;95971.59;;;16.25;64.87
64668;BME280;51077;42.716;23.344;2022-10-12T03:58:12;95973.38;;;16.23;64.87
64668;BME280;51077;42.716;23.344;2022-10-12T04:00:37;95970.19;;;16.19;64.95
64668;BME280;51077;42.716;23.344;2022-10-12T04:03:03;95972.75;;;16.17;64.86
64668;BME280;51077;42.716;23.344;2022-10-12T04:05:29;95966.78;;;16.13;64.88
64668;BME280;51077;42.716;23.344;2022-10-12T04:07:55;95973.19;;;16.07;65.03
64668;BME280;51077;42.716;23.344;2022-10-12T04:10:21;95970.91;;;16.06;65.08
64668;BME280;51077;42.716;23.344;2022-10-12T04:12:46;95977.53;;;16.03;65.36
64668;BME280;51077;42.716;23.344;2022-10-12T04:15:12;95982.66;;;15.99;65.15
64668;BME280;51077;42.716;23.344;2022-10-12T04:17:38;95977.00;;;15.91;65.48
64668;BME280;51077;42.716;23.344;2022-10-12T04:20:04;95983.13;;;15.84;65.98
64668;BME280;51077;42.716;23.344;2022-10-12T04:22:30;95988.03;;;15.78;66.29
64668;BME280;51077;42.716;23.344;2022-10-12T04:24:55;95986.63;;;15.71;66.55
64668;BME280;51077;42.716;23.344;2022-10-12T04:27:20;95984.97;;;15.63;66.73
64668;BME280;51077;42.716;23.344;2022-10-12T04:29:46;95984.88;;;15.55;67.16
64668;BME280;51077;42.716;23.344;2022-10-12T04:32:11;95984.56;;;15.58;68.59
64668;BME280;51077;42.716;23.344;2022-10-12T04:34:37;95989.25;;;15.64;68.26
64668;BME280;51077;42.716;23.344;2022-10-12T04:37:02;95985.75;;;15.63;67.81
64668;BME280;51077;42.716;23.344;2022-10-12T04:39:28;95985.31;;;15.59;67.68
64668;BME280;51077;42.716;23.344;2022-10-12T04:41:53;95986.13;;;15.54;67.62
64668;BME280;51077;42.716;23.344;2022-10-12T04:44:20;95998.78;;;15.49;67.67
64668;BME280;51077;42.716;23.344;2022-10-12T04:46:45;95987.25;;;15.45;67.72
64668;BME280;51077;42.716;23.344;2022-10-12T04:49:10;96000.69;;;15.41;67.75
64668;BME280;51077;42.716;23.344;2022-10-12T04:51:38;95991.16;;;15.37;67.92
64668;BME280;51077;42.716;23.344;2022-10-12T04:54:04;95995.75;;;15.34;67.94
64668;BME280;51077;42.716;23.344;2022-10-12T04:56:29;96004.34;;;15.30;67.83
64668;BME280;51077;42.716;23.344;2022-10-12T04:58:55;95995.06;;;15.28;67.89
64668;BME280;51077;42.716;23.344;2022-10-12T05:01:20;96014.53;;;15.22;68.01
64668;BME280;51077;42.716;23.344;2022-10-12T05:03:46;96014.31;;;15.20;68.18
64668;BME280;51077;42.716;23.344;2022-10-12T05:06:11;96012.59;;;15.17;68.03
64668;BME280;51077;42.716;23.344;2022-10-12T05:08:36;96008.09;;;15.14;68.17
64668;BME280;51077;42.716;23.344;2022-10-12T05:11:02;96009.91;;;15.12;68.20
64668;BME280;51077;42.716;23.344;2022-10-12T05:13:27;96013.19;;;15.10;68.48
64668;BME280;51077;42.716;23.344;2022-10-12T05:15:54;96014.69;;;15.11;68.79
64668;BME280;51077;42.716;23.344;2022-10-12T05:18:19;96017.22;;;15.09;68.62
64668;BME280;51077;42.716;23.344;2022-10-12T05:20:45;96013.41;;;15.12;69.11
64668;BME280;51077;42.716;23.344;2022-10-12T05:23:10;96018.84;;;15.18;69.34
64668;BME280;51077;42.716;23.344;2022-10-12T05:25:36;96033.78;;;15.28;69.37
64668;BME280;51077;42.716;23.344;2022-10-12T05:28:02;96036.19;;;15.37;69.25
64668;BME280;51077;42.716;23.344;2022-10-12T05:30:27;96036.41;;;15.39;68.93
64668;BME280;51077;42.716;23.344;2022-10-12T05:32:53;96036.94;;;15.38;68.69
64668;BME280;51077;42.716;23.344;2022-10-12T05:35:18;96038.72;;;15.35;68.91
64668;BME280;51077;42.716;23.344;2022-10-12T05:37:45;96043.06;;;15.30;69.01
64668;BME280;51077;42.716;23.344;2022-10-12T05:40:10;96037.31;;;15.28;69.21
64668;BME280;51077;42.716;23.344;2022-10-12T05:42:36;96034.84;;;15.25;69.07
64668;BME280;51077;42.716;23.344;2022-10-12T05:45:02;96038.91;;;15.24;69.04
64668;BME280;51077;42.716;23.344;2022-10-12T05:47:28;96039.41;;;15.22;69.14
64668;BME280;51077;42.716;23.344;2022-10-12T05:49:53;96043.22;;;15.19;69.12
64668;BME280;51077;42.716;23.344;2022-10-12T05:52:19;96051.50;;;15.19;69.09
64668;BME280;51077;42.716;23.344;2022-10-12T05:54:44;96053.22;;;15.22;69.15
64668;BME280;51077;42.716;23.344;2022-10-12T05:57:10;96053.22;;;15.22;68.98
64668;BME280;51077;42.716;23.344;2022-10-12T05:59:37;96058.03;;;15.22;69.03
64668;BME280;51077;42.716;23.344;2022-10-12T06:02:02;96060.56;;;15.20;68.74
64668;BME280;51077;42.716;23.344;2022-10-12T06:04:27;96065.56;;;15.21;68.93
64668;BME280;51077;42.716;23.344;2022-10-12T06:06:53;96066.56;;;15.24;69.06
64668;BME280;51077;42.716;23.344;2022-10-12T06:09:19;96065.28;;;15.25;69.25
64668;BME280;51077;42.716;23.344;2022-10-12T06:11:44;96072.28;;;15.26;69.01
64668;BME280;51077;42.716;23.344;2022-10-12T06:14:09;96070.28;;;15.26;68.98
64668;BME280;51077;42.716;23.344;2022-10-12T06:16:35;96072.84;;;15.24;68.95
64668;BME280;51077;42.716;23.344;2022-10-12T06:19:00;96075.06;;;15.26;68.82
64668;BME280;51077;42.716;23.344;2022-10-12T06:21:25;96078.56;;;15.26;68.72
64668;BME280;51077;42.716;23.344;2022-10-12T06:23:51;96070.28;;;15.26;68.83
64668;BME280;51077;42.716;23.344;2022-10-12T06:26:16;96075.28;;;15.28;68.93
64668;BME280;51077;42.716;23.344;2022-10-12T06:28:42;96072.50;;;15.28;68.73
64668;BME280;51077;42.716;23.344;2022-10-12T06:31:08;96080.31;;;15.29;68.62
64668;BME280;51077;42.716;23.344;2022-10-12T06:33:34;96079.56;;;15.29;68.67
64668;BME280;51077;42.716;23.344;2022-10-12T06:36:00;96086.56;;;15.30;68.69
64668;BME280;51077;42.716;23.344;2022-10-12T06:38:25;96090.31;;;15.32;68.62
64668;BME280;51077;42.716;23.344;2022-10-12T06:40:51;96083.50;;;15.33;68.41
64668;BME280;51077;42.716;23.344;2022-10-12T06:43:17;96083.50;;;15.33;68.69
64668;BME280;51077;42.716;23.344;2022-10-12T06:45:43;96093.16;;;15.27;69.44
64668;BME280;51077;42.716;23.344;2022-10-12T06:48:08;96089.63;;;15.26;69.21
64668;BME280;51077;42.716;23.344;2022-10-12T06:50:35;96091.44;;;15.24;69.13
64668;BME280;51077;42.716;23.344;2022-10-12T06:53:00;96093.31;;;15.16;69.16
64668;BME280;51077;42.716;23.344;2022-10-12T06:55:26;96094.72;;;15.03;70.16
64668;BME280;51077;42.716;23.344;2022-10-12T06:57:54;96097.97;;;14.83;70.88
64668;BME280;51077;42.716;23.344;2022-10-12T07:00:19;96104.25;;;14.59;71.64
64668;BME280;51077;42.716;23.344;2022-10-12T07:02:48;96101.25;;;14.57;72.64
64668;BME280;51077;42.716;23.344;2022-10-12T07:05:13;96097.41;;;14.66;72.43
64668;BME280;51077;42.716;23.344;2022-10-12T07:07:40;96100.03;;;14.77;71.82
64668;BME280;51077;42.716;23.344;2022-10-12T07:10:06;96102.66;;;14.88;71.28
64668;BME280;51077;42.716;23.344;2022-10-12T07:12:34;96103.72;;;14.85;71.43
64668;BME280;51077;42.716;23.344;2022-10-12T07:15:00;96098.06;;;14.96;71.20
64668;BME280;51077;42.716;23.344;2022-10-12T07:17:26;96101.28;;;15.00;70.71
64668;BME280;51077;42.716;23.344;2022-10-12T07:19:51;96106.88;;;14.95;70.81
64668;BME280;51077;42.716;23.344;2022-10-12T07:22:16;96100.91;;;14.91;71.07
64668;BME280;51077;42.716;23.344;2022-10-12T07:24:42;96097.38;;;14.90;70.95
64668;BME280;51077;42.716;23.344;2022-10-12T07:27:09;96103.94;;;14.87;71.29
64668;BME280;51077;42.716;23.344;2022-10-12T07:29:36;96106.06;;;15.00;70.99
64668;BME280;51077;42.716;23.344;2022-10-12T07:32:02;96107.94;;;15.11;70.44
64668;BME280;51077;42.716;23.344;2022-10-12T07:34:28;96100.31;;;15.17;69.98
64668;BME280;51077;42.716;23.344;2022-10-12T07:36:54;96101.06;;;15.17;70.27
64668;BME280;51077;42.716;23.344;2022-10-12T07:39:21;96103.31;;;15.19;69.93
64668;BME280;51077;42.716;23.344;2022-10-12T07:41:48;96110.19;;;15.12;69.66
64668;BME280;51077;42.716;23.344;2022-10-12T07:44:13;96112.50;;;15.08;69.76
64668;BME280;51077;42.716;23.344;2022-10-12T07:46:39;96110.19;;;15.12;69.94
64668;BME280;51077;42.716;23.344;2022-10-12T07:49:04;96115.56;;;15.23;69.62
64668;BME280;51077;42.716;23.344;2022-10-12T07:51:30;96115.44;;;15.34;69.11
64668;BME280;51077;42.716;23.344;2022-10-12T07:53:55;96114.31;;;15.43;68.72
64668;BME280;51077;42.716;23.344;2022-10-12T07:56:21;96108.13;;;15.37;68.91
64668;BME280;51077;42.716;23.344;2022-10-12T07:58:52;96113.13;;;15.39;68.54
64668;BME280;51077;42.716;23.344;2022-10-12T08:01:19;96108.91;;;15.32;68.67
64668;BME280;51077;42.716;23.344;2022-10-12T08:03:46;96108.41;;;15.33;68.61
64668;BME280;51077;42.716;23.344;2022-10-12T08:06:13;96114.22;;;15.30;68.77
64668;BME280;51077;42.716;23.344;2022-10-12T08:08:40;96107.66;;;15.33;68.75
64668;BME280;51077;42.716;23.344;2022-10-12T08:11:06;96111.91;;;15.34;68.91
64668;BME280;51077;42.716;23.344;2022-10-12T08:13:32;96103.78;;;15.42;68.37
64668;BME280;51077;42.716;23.344;2022-10-12T08:15:58;96108.31;;;15.39;68.97
64668;BME280;51077;42.716;23.344;2022-10-12T08:18:23;96114.84;;;15.42;68.86
64668;BME280;51077;42.716;23.344;2022-10-12T08:20:49;96108.78;;;15.43;68.98
64668;BME280;51077;42.716;23.344;2022-10-12T08:23:14;96112.19;;;15.49;69.23
64668;BME280;51077;42.716;23.344;2022-10-12T08:25:40;96107.13;;;15.53;68.95
64668;BME280;51077;42.716;23.344;2022-10-12T08:28:05;96108.50;;;15.66;68.63
64668;BME280;51077;42.716;23.344;2022-10-12T08:30:34;96112.16;;;15.74;68.24
64668;BME280;51077;42.716;23.344;2022-10-12T08:32:59;96114.06;;;15.79;68.25
64668;BME280;51077;42.716;23.344;2022-10-12T08:35:25;96108.69;;;15.87;67.58
64668;BME280;51077;42.716;23.344;2022-10-12T08:37:50;96109.13;;;15.91;67.64
64668;BME280;51077;42.716;23.344;2022-10-12T08:40:27;96109.88;;;15.91;67.73
64668;BME280;51077;42.716;23.344;2022-10-12T08:43:00;96114.13;;;15.92;67.85
64668;BME280;51077;42.716;23.344;2022-10-12T08:45:51;96103.00;;;15.98;68.51
64668;BME280;51077;42.716;23.344;2022-10-12T08:48:21;96094.72;;;16.11;68.21
64668;BME280;51077;42.716;23.344;2022-10-12T08:50:52;96099.31;;;16.22;67.98
64668;BME280;51077;42.716;23.344;2022-10-12T08:53:42;96093.16;;;16.29;67.32
64668;BME280;51077;42.716;23.344;2022-10-12T08:56:09;96102.84;;;16.36;66.90
64668;BME280;51077;42.716;23.344;2022-10-12T08:58:36;96102.53;;;16.39;66.70
64668;BME280;51077;42.716;23.344;2022-10-12T09:01:30;96101.47;;;16.42;65.88
64668;BME280;51077;42.716;23.344;2022-10-12T09:14:46;96100.84;;;16.63;64.36
64668;BME280;51077;42.716;23.344;2022-10-12T09:17:35;96102.25;;;16.69;64.34
64668;BME280;51077;42.716;23.344;2022-10-12T09:22:49;96102.47;;;16.84;64.11
64668;BME280;51077;42.716;23.344;2022-10-12T09:25:22;96105.91;;;16.77;64.02
64668;BME280;51077;42.716;23.344;2022-10-12T09:27:48;96107.50;;;16.73;64.46
64668;BME280;51077;42.716;23.344;2022-10-12T09:30:15;96109.31;;;16.83;63.76
64668;BME280;51077;42.716;23.344;2022-10-12T09:33:06;96099.06;;;16.78;63.62
64668;BME280;51077;42.716;23.344;2022-10-12T09:35:35;96109.06;;;16.68;63.99
64668;BME280;51077;42.716;23.344;2022-10-12T09:38:02;96111.53;;;16.72;63.94
64668;BME280;51077;42.716;23.344;2022-10-12T09:40:29;96107.72;;;16.75;63.89
64668;BME280;51077;42.716;23.344;2022-10-12T09:42:58;96110.47;;;16.75;64.05
64668;BME280;51077;42.716;23.344;2022-10-12T09:45:25;96101.50;;;16.69;63.88
64668;BME280;51077;42.716;23.344;2022-10-12T09:53:23;96102.03;;;16.67;64.18
64668;BME280;51077;42.716;23.344;2022-10-12T09:55:57;96104.09;;;16.80;63.81
64668;BME280;51077;42.716;23.344;2022-10-12T09:58:25;96104.31;;;16.95;62.98
64668;BME280;51077;42.716;23.344;2022-10-12T10:01:18;96096.09;;;17.03;62.56
64668;BME280;51077;42.716;23.344;2022-10-12T10:03:47;96097.91;;;17.00;62.35
64668;BME280;51077;42.716;23.344;2022-10-12T10:06:13;96095.75;;;16.93;62.74
64668;BME280;51077;42.716;23.344;2022-10-12T10:08:43;96102.91;;;17.02;62.31
64668;BME280;51077;42.716;23.344;2022-10-12T10:11:22;96091.72;;;17.07;62.54
64668;BME280;51077;42.716;23.344;2022-10-12T10:13:52;96092.97;;;17.06;62.34
64668;BME280;51077;42.716;23.344;2022-10-12T10:16:19;96089.88;;;17.10;62.50
64668;BME280;51077;42.716;23.344;2022-10-12T10:18:48;96087.63;;;17.22;62.35
64668;BME280;51077;42.716;23.344;2022-10-12T10:21:29;96086.34;;;17.23;62.19
64668;BME280;51077;42.716;23.344;2022-10-12T10:26:29;96082.06;;;17.22;61.84
64668;BME280;51077;42.716;23.344;2022-10-12T10:32:16;96079.13;;;17.41;61.38
64668;BME280;51077;42.716;23.344;2022-10-12T10:35:20;96077.75;;;17.47;60.45
64668;BME280;51077;42.716;23.344;2022-10-12T10:37:50;96068.31;;;17.64;59.86
64668;BME280;51077;42.716;23.344;2022-10-12T10:42:48;96063.53;;;17.85;59.02
64668;BME280;51077;42.716;23.344;2022-10-12T10:45:31;96062.09;;;17.92;59.04
64668;BME280;51077;42.716;23.344;2022-10-12T10:48:08;96061.16;;;18.10;58.66
64668;BME280;51077;42.716;23.344;2022-10-12T10:50:40;96059.53;;;18.15;58.54
64668;BME280;51077;42.716;23.344;2022-10-12T10:53:31;96057.34;;;18.21;58.42
64668;BME280;51077;42.716;23.344;2022-10-12T10:58:37;96048.53;;;18.58;57.40
64668;BME280;51077;42.716;23.344;2022-10-12T11:02:10;96056.31;;;18.81;56.64
64668;BME280;51077;42.716;23.344;2022-10-12T11:04:13;96060.84;;;18.99;55.90
64668;BME280;51077;42.716;23.344;2022-10-12T11:06:43;96055.06;;;18.97;55.69
64668;BME280;51077;42.716;23.344;2022-10-12T11:09:16;96046.16;;;18.91;55.71
64668;BME280;51077;42.716;23.344;2022-10-12T11:11:53;96059.84;;;18.89;55.72
64668;BME280;51077;42.716;23.344;2022-10-12T11:14:26;96040.38;;;18.89;55.31
64668;BME280;51077;42.716;23.344;2022-10-12T11:17:30;96042.81;;;18.93;55.22
64668;BME280;51077;42.716;23.344;2022-10-12T11:22:38;96041.94;;;19.05;55.14
64668;BME280;51077;42.716;23.344;2022-10-12T11:25:17;96031.72;;;19.00;54.99
64668;BME280;51077;42.716;23.344;2022-10-12T11:27:46;96040.81;;;19.01;55.28
64668;BME280;51077;42.716;23.344;2022-10-12T11:30:14;96038.22;;;19.03;55.24
64668;BME280;51077;42.716;23.344;2022-10-12T11:33:11;96037.00;;;19.27;54.58
64668;BME280;51077;42.716;23.344;2022-10-12T11:35:36;96034.63;;;19.31;54.31
64668;BME280;51077;42.716;23.344;2022-10-12T11:38:05;96019.03;;;19.36;53.96
64668;BME280;51077;42.716;23.344;2022-10-12T11:46:39;96028.41;;;19.09;55.04
64668;BME280;51077;42.716;23.344;2022-10-12T11:52:17;96028.00;;;18.98;55.67
64668;BME280;51077;42.716;23.344;2022-10-12T11:57:26;96030.03;;;18.97;55.40
64668;BME280;51077;42.716;23.344;2022-10-12T12:00:05;96037.69;;;19.04;55.21
64668;BME280;51077;42.716;23.344;2022-10-12T12:02:39;96028.81;;;19.14;54.54
64668;BME280;51077;42.716;23.344;2022-10-12T12:05:14;96028.03;;;19.05;54.60
64668;BME280;51077;42.716;23.344;2022-10-12T12:07:51;96023.59;;;19.10;54.76
64668;BME280;51077;42.716;23.344;2022-10-12T12:18:20;96031.22;;;18.73;54.92
64668;BME280;51077;42.716;23.344;2022-10-12T12:25:45;96020.25;;;18.68;54.85
64668;BME280;51077;42.716;23.344;2022-10-12T12:28:20;96014.06;;;18.62;55.24
64668;BME280;51077;42.716;23.344;2022-10-12T12:30:59;96022.81;;;18.66;55.09
64668;BME280;51077;42.716;23.344;2022-10-12T12:33:29;96025.81;;;18.68;55.13
64668;BME280;51077;42.716;23.344;2022-10-12T12:36:01;96025.00;;;18.59;55.31
64668;BME280;51077;42.716;23.344;2022-10-12T12:38:40;96018.91;;;18.61;54.98
64668;BME280;51077;42.716;23.344;2022-10-12T12:41:11;96022.97;;;18.60;55.01
64668;BME280;51077;42.716;23.344;2022-10-12T12:46:11;96025.75;;;18.60;55.00
64668;BME280;51077;42.716;23.344;2022-10-12T12:51:19;96022.81;;;18.66;55.08
64668;BME280;51077;42.716;23.344;2022-10-12T12:54:33;96022.16;;;18.80;55.06
64668;BME280;51077;42.716;23.344;2022-10-12T13:00:07;96015.94;;;18.95;55.50
64668;BME280;51077;42.716;23.344;2022-10-12T13:16:38;96031.47;;;19.34;54.33
64668;BME280;51077;42.716;23.344;2022-10-12T13:19:12;96033.34;;;19.40;54.76
64668;BME280;51077;42.716;23.344;2022-10-12T13:21:41;96037.06;;;19.42;54.55
64668;BME280;51077;42.716;23.344;2022-10-12T13:24:18;96029.06;;;19.39;54.57
64668;BME280;51077;42.716;23.344;2022-10-12T13:26:48;96034.06;;;19.32;54.48
64668;BME280;51077;42.716;23.344;2022-10-12T13:30:02;96027.22;;;19.41;54.22
64668;BME280;51077;42.716;23.344;2022-10-12T13:34:54;96029.91;;;19.93;53.20
64668;BME280;51077;42.716;23.344;2022-10-12T13:37:29;96030.13;;;19.87;53.36
64668;BME280;51077;42.716;23.344;2022-10-12T13:39:55;96034.16;;;19.71;53.63
64668;BME280;51077;42.716;23.344;2022-10-12T13:42:26;96032.81;;;19.56;53.79
64668;BME280;51077;42.716;23.344;2022-10-12T13:44:52;96038.91;;;19.40;54.20
64668;BME280;51077;42.716;23.344;2022-10-12T13:47:26;96032.94;;;19.28;54.34
64668;BME280;51077;42.716;23.344;2022-10-12T13:49:53;96037.53;;;19.18;54.35
64668;BME280;51077;42.716;23.344;2022-10-12T13:52:29;96028.25;;;19.07;54.33
64668;BME280;51077;42.716;23.344;2022-10-12T13:54:55;96030.81;;;19.05;54.75
64668;BME280;51077;42.716;23.344;2022-10-12T13:57:47;96030.63;;;19.03;54.37
64668;BME280;51077;42.716;23.344;2022-10-12T14:02:41;96034.28;;;18.91;54.99
64668;BME280;51077;42.716;23.344;2022-10-12T14:05:19;96034.63;;;18.87;54.95
64668;BME280;51077;42.716;23.344;2022-10-12T14:07:46;96026.59;;;18.76;55.48
64668;BME280;51077;42.716;23.344;2022-10-12T14:10:34;96027.63;;;18.65;55.88
64668;BME280;51077;42.716;23.344;2022-10-12T14:13:01;96028.28;;;18.50;56.64
64668;BME280;51077;42.716;23.344;2022-10-12T14:15:39;96020.31;;;18.47;56.80
64668;BME280;51077;42.716;23.344;2022-10-12T14:18:40;96010.81;;;18.42;56.98
64668;BME280;51077;42.716;23.344;2022-10-12T14:21:17;96020.81;;;18.38;57.11
64668;BME280;51077;42.716;23.344;2022-10-12T14:23:46;96017.25;;;18.37;57.09
64668;BME280;51077;42.716;23.344;2022-10-12T14:27:04;96020.75;;;18.30;56.74
64668;BME280;51077;42.716;23.344;2022-10-12T14:29:47;96025.09;;;18.18;57.21
64668;BME280;51077;42.716;23.344;2022-10-12T14:34:42;96021.31;;;18.07;57.55
64668;BME280;51077;42.716;23.344;2022-10-12T14:39:45;96024.94;;;17.95;58.34
64668;BME280;51077;42.716;23.344;2022-10-12T14:42:25;96022.81;;;17.88;58.77
64668;BME280;51077;42.716;23.344;2022-10-12T14:44:51;96024.25;;;17.81;59.12
64668;BME280;51077;42.716;23.344;2022-10-12T14:47:22;96022.66;;;17.72;59.17
64668;BME280;51077;42.716;23.344;2022-10-12T14:49:49;96018.34;;;17.64;59.77
64668;BME280;51077;42.716;23.344;2022-10-12T14:52:19;96017.50;;;17.55;59.93
64668;BME280;51077;42.716;23.344;2022-10-12T14:54:54;96022.66;;;17.51;59.94
64668;BME280;51077;42.716;23.344;2022-10-12T14:57:20;96018.91;;;17.49;59.98
64668;BME280;51077;42.716;23.344;2022-10-12T14:59:46;96018.63;;;17.39;60.36
64668;BME280;51077;42.716;23.344;2022-10-12T15:02:21;96022.28;;;17.34;60.62
64668;BME280;51077;42.716;23.344;2022-10-12T15:04:47;96012.06;;;17.29;60.82
64668;BME280;51077;42.716;23.344;2022-10-12T15:09:49;96009.53;;;17.18;60.97